sensor_id;sensor_type;location;lat;lon;timestamp;P1;durP1;ratioP1;P2;durP2;ratioP2
2994;SDS011;35277;49.890;8.222;2023-04-25T00:00:21;1.00;;;0.40;;
2994;SDS011;35277;49.890;8.222;2023-04-25T00:02:49;0.97;;;0.40;;
2994;SDS011;35277;49.890;8.222;2023-04-25T00:05:17;1.00;;;0.40;;
2994;SDS011;35277;49.890;8.222;2023-04-25T00:07:47;0.97;;;0.43;;
2994;SDS011;35277;49.890;8.222;2023-04-25T00:10:15;1.10;;;0.70;;
2994;SDS011;35277;49.890;8.222;2023-04-25T00:12:42;1.00;;;0.40;;
2994;SDS011;35277;49.890;8.222;2023-04-25T00:15:10;1.00;;;0.53;;
2994;SDS011;35277;49.890;8.222;2023-04-25T00:17:38;1.43;;;0.70;;
2994;SDS011;35277;49.890;8.222;2023-04-25T00:20:07;1.00;;;0.50;;
2994;SDS011;35277;49.890;8.222;2023-04-25T00:22:35;2.50;;;0.90;;
2994;SDS011;35277;49.890;8.222;2023-04-25T00:25:06;0.93;;;0.40;;
2994;SDS011;35277;49.890;8.222;2023-04-25T00:27:34;1.00;;;0.50;;
2994;SDS011;35277;49.890;8.222;2023-04-25T00:30:03;0.97;;;0.40;;
2994;SDS011;35277;49.890;8.222;2023-04-25T00:34:59;1.00;;;0.53;;
2994;SDS011;35277;49.890;8.222;2023-04-25T00:37:27;1.00;;;0.40;;
2994;SDS011;35277;49.890;8.222;2023-04-25T00:39:57;1.00;;;0.40;;
2994;SDS011;35277;49.890;8.222;2023-04-25T00:42:26;1.00;;;0.50;;
2994;SDS011;35277;49.890;8.222;2023-04-25T00:44:55;1.00;;;0.50;;
2994;SDS011;35277;49.890;8.222;2023-04-25T00:47:24;2.60;;;1.00;;
2994;SDS011;35277;49.890;8.222;2023-04-25T00:49:52;1.00;;;0.67;;
2994;SDS011;35277;49.890;8.222;2023-04-25T00:52:20;1.10;;;0.70;;
2994;SDS011;35277;49.890;8.222;2023-04-25T00:54:48;1.00;;;0.50;;
2994;SDS011;35277;49.890;8.222;2023-04-25T00:57:15;0.90;;;0.30;;
2994;SDS011;35277;49.890;8.222;2023-04-25T00:59:45;1.13;;;0.50;;
2994;SDS011;35277;49.890;8.222;2023-04-25T01:02:13;0.90;;;0.40;;
2994;SDS011;35277;49.890;8.222;2023-04-25T01:04:41;1.33;;;0.60;;
2994;SDS011;35277;49.890;8.222;2023-04-25T01:07:09;1.10;;;0.90;;
2994;SDS011;35277;49.890;8.222;2023-04-25T01:09:37;1.00;;;0.50;;
2994;SDS011;35277;49.890;8.222;2023-04-25T01:12:05;1.00;;;0.40;;
2994;SDS011;35277;49.890;8.222;2023-04-25T01:14:33;1.00;;;0.43;;
2994;SDS011;35277;49.890;8.222;2023-04-25T01:17:02;1.87;;;0.70;;
2994;SDS011;35277;49.890;8.222;2023-04-25T01:19:31;0.97;;;0.40;;
2994;SDS011;35277;49.890;8.222;2023-04-25T01:22:00;1.00;;;0.40;;
2994;SDS011;35277;49.890;8.222;2023-04-25T01:24:29;1.17;;;0.50;;
2994;SDS011;35277;49.890;8.222;2023-04-25T01:26:58;1.00;;;0.50;;
2994;SDS011;35277;49.890;8.222;2023-04-25T01:29:27;1.00;;;0.60;;
2994;SDS011;35277;49.890;8.222;2023-04-25T01:31:56;3.20;;;1.13;;
2994;SDS011;35277;49.890;8.222;2023-04-25T01:34:25;1.00;;;0.50;;
2994;SDS011;35277;49.890;8.222;2023-04-25T01:36:53;0.97;;;0.40;;
2994;SDS011;35277;49.890;8.222;2023-04-25T01:39:22;1.17;;;0.63;;
2994;SDS011;35277;49.890;8.222;2023-04-25T01:41:51;1.10;;;0.50;;
2994;SDS011;35277;49.890;8.222;2023-04-25T01:44:19;1.40;;;0.67;;
2994;SDS011;35277;49.890;8.222;2023-04-25T01:46:47;1.00;;;0.40;;
2994;SDS011;35277;49.890;8.222;2023-04-25T01:49:15;1.20;;;0.53;;
2994;SDS011;35277;49.890;8.222;2023-04-25T01:51:43;1.20;;;0.63;;
2994;SDS011;35277;49.890;8.222;2023-04-25T01:54:11;1.00;;;0.40;;
2994;SDS011;35277;49.890;8.222;2023-04-25T01:56:41;1.10;;;0.50;;
2994;SDS011;35277;49.890;8.222;2023-04-25T01:59:10;2.03;;;1.10;;
2994;SDS011;35277;49.890;8.222;2023-04-25T02:01:54;1.20;;;0.50;;
2994;SDS011;35277;49.890;8.222;2023-04-25T02:04:27;1.20;;;0.70;;
2994;SDS011;35277;49.890;8.222;2023-04-25T02:06:55;0.93;;;0.40;;
2994;SDS011;35277;49.890;8.222;2023-04-25T02:09:31;5.73;;;1.90;;
2994;SDS011;35277;49.890;8.222;2023-04-25T02:12:04;1.00;;;0.50;;
2994;SDS011;35277;49.890;8.222;2023-04-25T02:14:40;1.63;;;1.13;;
2994;SDS011;35277;49.890;8.222;2023-04-25T02:17:17;1.00;;;0.40;;
2994;SDS011;35277;49.890;8.222;2023-04-25T02:19:47;1.10;;;0.50;;
2994;SDS011;35277;49.890;8.222;2023-04-25T02:22:15;0.90;;;0.40;;
2994;SDS011;35277;49.890;8.222;2023-04-25T02:24:43;1.10;;;0.60;;
2994;SDS011;35277;49.890;8.222;2023-04-25T02:27:12;1.00;;;0.40;;
2994;SDS011;35277;49.890;8.222;2023-04-25T02:29:40;1.10;;;0.60;;
2994;SDS011;35277;49.890;8.222;2023-04-25T02:32:10;1.50;;;0.60;;
2994;SDS011;35277;49.890;8.222;2023-04-25T02:34:37;1.00;;;0.40;;
2994;SDS011;35277;49.890;8.222;2023-04-25T02:37:05;1.10;;;0.50;;
2994;SDS011;35277;49.890;8.222;2023-04-25T02:39:33;1.00;;;0.40;;
2994;SDS011;35277;49.890;8.222;2023-04-25T02:42:01;0.97;;;0.40;;
2994;SDS011;35277;49.890;8.222;2023-04-25T02:44:30;1.00;;;0.40;;
2994;SDS011;35277;49.890;8.222;2023-04-25T02:46:58;1.00;;;0.40;;
2994;SDS011;35277;49.890;8.222;2023-04-25T02:49:26;0.90;;;0.40;;
2994;SDS011;35277;49.890;8.222;2023-04-25T02:51:54;1.00;;;0.40;;
2994;SDS011;35277;49.890;8.222;2023-04-25T02:54:21;1.37;;;1.17;;
2994;SDS011;35277;49.890;8.222;2023-04-25T02:56:49;0.90;;;0.40;;
2994;SDS011;35277;49.890;8.222;2023-04-25T02:59:23;1.73;;;1.07;;
2994;SDS011;35277;49.890;8.222;2023-04-25T03:01:52;1.00;;;0.50;;
2994;SDS011;35277;49.890;8.222;2023-04-25T03:04:20;1.00;;;0.40;;
2994;SDS011;35277;49.890;8.222;2023-04-25T03:06:49;1.00;;;0.40;;
2994;SDS011;35277;49.890;8.222;2023-04-25T03:09:19;1.00;;;0.40;;
2994;SDS011;35277;49.890;8.222;2023-04-25T03:11:48;0.90;;;0.40;;
2994;SDS011;35277;49.890;8.222;2023-04-25T03:14:17;1.00;;;0.40;;
2994;SDS011;35277;49.890;8.222;2023-04-25T03:16:44;1.30;;;0.60;;
2994;SDS011;35277;49.890;8.222;2023-04-25T03:19:13;1.00;;;0.40;;
2994;SDS011;35277;49.890;8.222;2023-04-25T03:21:42;0.97;;;0.40;;
2994;SDS011;35277;49.890;8.222;2023-04-25T03:24:11;0.93;;;0.40;;
2994;SDS011;35277;49.890;8.222;2023-04-25T03:26:39;1.00;;;0.40;;
2994;SDS011;35277;49.890;8.222;2023-04-25T03:29:07;1.20;;;0.67;;
2994;SDS011;35277;49.890;8.222;2023-04-25T03:31:37;1.00;;;0.40;;
2994;SDS011;35277;49.890;8.222;2023-04-25T03:34:04;1.00;;;0.57;;
2994;SDS011;35277;49.890;8.222;2023-04-25T03:36:33;1.00;;;0.50;;
2994;SDS011;35277;49.890;8.222;2023-04-25T03:39:02;1.00;;;0.40;;
2994;SDS011;35277;49.890;8.222;2023-04-25T03:41:30;0.90;;;0.30;;
2994;SDS011;35277;49.890;8.222;2023-04-25T03:44:07;1.63;;;0.63;;
2994;SDS011;35277;49.890;8.222;2023-04-25T03:46:35;1.00;;;0.40;;
2994;SDS011;35277;49.890;8.222;2023-04-25T03:49:02;0.90;;;0.40;;
2994;SDS011;35277;49.890;8.222;2023-04-25T03:51:51;1.13;;;0.60;;
2994;SDS011;35277;49.890;8.222;2023-04-25T03:54:19;1.00;;;0.40;;
2994;SDS011;35277;49.890;8.222;2023-04-25T03:56:55;0.93;;;0.40;;
2994;SDS011;35277;49.890;8.222;2023-04-25T03:59:26;1.60;;;0.70;;
2994;SDS011;35277;49.890;8.222;2023-04-25T04:01:54;0.90;;;0.40;;
2994;SDS011;35277;49.890;8.222;2023-04-25T04:04:22;1.10;;;0.60;;
2994;SDS011;35277;49.890;8.222;2023-04-25T04:06:52;1.00;;;0.40;;
2994;SDS011;35277;49.890;8.222;2023-04-25T04:09:24;0.90;;;0.30;;
2994;SDS011;35277;49.890;8.222;2023-04-25T04:11:54;1.00;;;0.40;;
2994;SDS011;35277;49.890;8.222;2023-04-25T04:14:22;1.10;;;0.77;;
2994;SDS011;35277;49.890;8.222;2023-04-25T04:16:50;1.40;;;0.60;;
2994;SDS011;35277;49.890;8.222;2023-04-25T04:19:18;1.00;;;0.40;;
2994;SDS011;35277;49.890;8.222;2023-04-25T04:21:55;1.00;;;0.40;;
2994;SDS011;35277;49.890;8.222;2023-04-25T04:24:23;0.90;;;0.37;;
2994;SDS011;35277;49.890;8.222;2023-04-25T04:26:59;1.00;;;0.50;;
2994;SDS011;35277;49.890;8.222;2023-04-25T04:29:35;1.00;;;0.43;;
2994;SDS011;35277;49.890;8.222;2023-04-25T04:32:23;1.00;;;0.40;;
2994;SDS011;35277;49.890;8.222;2023-04-25T04:34:53;1.00;;;0.40;;
2994;SDS011;35277;49.890;8.222;2023-04-25T04:37:24;0.97;;;0.47;;
2994;SDS011;35277;49.890;8.222;2023-04-25T04:39:52;1.03;;;0.60;;
2994;SDS011;35277;49.890;8.222;2023-04-25T04:42:24;1.00;;;0.40;;
2994;SDS011;35277;49.890;8.222;2023-04-25T04:45:10;1.00;;;0.40;;
2994;SDS011;35277;49.890;8.222;2023-04-25T04:47:57;1.40;;;0.90;;
2994;SDS011;35277;49.890;8.222;2023-04-25T04:50:44;1.00;;;0.40;;
2994;SDS011;35277;49.890;8.222;2023-04-25T04:53:32;1.00;;;0.40;;
2994;SDS011;35277;49.890;8.222;2023-04-25T04:56:18;1.20;;;0.40;;
2994;SDS011;35277;49.890;8.222;2023-04-25T04:58:49;1.00;;;0.40;;
2994;SDS011;35277;49.890;8.222;2023-04-25T05:01:31;1.00;;;0.40;;
2994;SDS011;35277;49.890;8.222;2023-04-25T05:04:19;1.43;;;1.33;;
2994;SDS011;35277;49.890;8.222;2023-04-25T05:07:07;1.00;;;0.40;;
2994;SDS011;35277;49.890;8.222;2023-04-25T05:09:56;1.40;;;0.80;;
2994;SDS011;35277;49.890;8.222;2023-04-25T05:12:58;1.10;;;0.60;;
2994;SDS011;35277;49.890;8.222;2023-04-25T05:15:44;1.00;;;0.50;;
2994;SDS011;35277;49.890;8.222;2023-04-25T05:18:21;1.00;;;0.40;;
2994;SDS011;35277;49.890;8.222;2023-04-25T05:21:04;1.00;;;0.50;;
2994;SDS011;35277;49.890;8.222;2023-04-25T05:23:38;1.00;;;0.50;;
2994;SDS011;35277;49.890;8.222;2023-04-25T05:26:33;1.40;;;0.80;;
2994;SDS011;35277;49.890;8.222;2023-04-25T05:29:33;1.00;;;0.47;;
2994;SDS011;35277;49.890;8.222;2023-04-25T05:32:14;1.10;;;0.80;;
2994;SDS011;35277;49.890;8.222;2023-04-25T05:34:44;2.07;;;1.57;;
2994;SDS011;35277;49.890;8.222;2023-04-25T05:37:21;1.10;;;0.50;;
2994;SDS011;35277;49.890;8.222;2023-04-25T05:39:58;1.10;;;0.70;;
2994;SDS011;35277;49.890;8.222;2023-04-25T05:42:42;1.63;;;0.90;;
2994;SDS011;35277;49.890;8.222;2023-04-25T05:45:39;1.00;;;0.50;;
2994;SDS011;35277;49.890;8.222;2023-04-25T05:48:28;3.00;;;0.90;;
2994;SDS011;35277;49.890;8.222;2023-04-25T05:51:05;1.00;;;0.43;;
2994;SDS011;35277;49.890;8.222;2023-04-25T05:53:42;2.50;;;2.20;;
2994;SDS011;35277;49.890;8.222;2023-04-25T05:56:12;1.00;;;0.40;;
2994;SDS011;35277;49.890;8.222;2023-04-25T05:58:41;1.00;;;0.40;;
2994;SDS011;35277;49.890;8.222;2023-04-25T06:01:11;1.20;;;0.70;;
2994;SDS011;35277;49.890;8.222;2023-04-25T06:03:40;1.00;;;0.60;;
2994;SDS011;35277;49.890;8.222;2023-04-25T06:06:09;1.20;;;0.53;;
2994;SDS011;35277;49.890;8.222;2023-04-25T06:08:38;2.63;;;1.40;;
2994;SDS011;35277;49.890;8.222;2023-04-25T06:11:05;1.00;;;0.40;;
2994;SDS011;35277;49.890;8.222;2023-04-25T06:13:33;1.13;;;0.67;;
2994;SDS011;35277;49.890;8.222;2023-04-25T06:16:03;0.90;;;0.40;;
2994;SDS011;35277;49.890;8.222;2023-04-25T06:18:31;1.50;;;1.13;;
2994;SDS011;35277;49.890;8.222;2023-04-25T06:20:58;1.00;;;0.50;;
2994;SDS011;35277;49.890;8.222;2023-04-25T06:23:26;1.37;;;0.60;;
2994;SDS011;35277;49.890;8.222;2023-04-25T06:26:02;2.37;;;1.47;;
2994;SDS011;35277;49.890;8.222;2023-04-25T06:28:31;1.00;;;0.53;;
2994;SDS011;35277;49.890;8.222;2023-04-25T06:30:59;1.00;;;0.50;;
2994;SDS011;35277;49.890;8.222;2023-04-25T06:33:29;1.20;;;0.60;;
2994;SDS011;35277;49.890;8.222;2023-04-25T06:35:56;1.00;;;0.40;;
2994;SDS011;35277;49.890;8.222;2023-04-25T06:38:26;1.07;;;0.47;;
2994;SDS011;35277;49.890;8.222;2023-04-25T06:40:56;1.10;;;0.60;;
2994;SDS011;35277;49.890;8.222;2023-04-25T06:43:26;1.60;;;1.47;;
2994;SDS011;35277;49.890;8.222;2023-04-25T06:46:03;1.00;;;0.50;;
2994;SDS011;35277;49.890;8.222;2023-04-25T06:48:38;1.00;;;0.40;;
2994;SDS011;35277;49.890;8.222;2023-04-25T06:51:06;1.30;;;0.80;;
2994;SDS011;35277;49.890;8.222;2023-04-25T06:53:35;1.10;;;0.57;;
2994;SDS011;35277;49.890;8.222;2023-04-25T06:56:06;1.67;;;0.70;;
2994;SDS011;35277;49.890;8.222;2023-04-25T06:58:50;3.87;;;1.60;;
2994;SDS011;35277;49.890;8.222;2023-04-25T07:01:33;3.43;;;1.90;;
2994;SDS011;35277;49.890;8.222;2023-04-25T07:04:06;2.37;;;0.90;;
2994;SDS011;35277;49.890;8.222;2023-04-25T07:06:39;1.00;;;0.60;;
2994;SDS011;35277;49.890;8.222;2023-04-25T07:09:09;1.47;;;0.83;;
2994;SDS011;35277;49.890;8.222;2023-04-25T07:11:37;3.20;;;0.83;;
2994;SDS011;35277;49.890;8.222;2023-04-25T07:14:06;1.20;;;0.60;;
2994;SDS011;35277;49.890;8.222;2023-04-25T07:16:33;1.00;;;0.50;;
2994;SDS011;35277;49.890;8.222;2023-04-25T07:19:02;1.00;;;0.50;;
2994;SDS011;35277;49.890;8.222;2023-04-25T07:21:31;1.00;;;0.50;;
2994;SDS011;35277;49.890;8.222;2023-04-25T07:24:01;1.10;;;0.87;;
2994;SDS011;35277;49.890;8.222;2023-04-25T07:26:33;1.20;;;0.80;;
2994;SDS011;35277;49.890;8.222;2023-04-25T07:29:21;1.47;;;0.83;;
2994;SDS011;35277;49.890;8.222;2023-04-25T07:31:49;1.00;;;0.67;;
2994;SDS011;35277;49.890;8.222;2023-04-25T07:34:19;0.90;;;0.40;;
2994;SDS011;35277;49.890;8.222;2023-04-25T07:36:49;1.10;;;0.60;;
2994;SDS011;35277;49.890;8.222;2023-04-25T07:39:17;1.57;;;0.60;;
2994;SDS011;35277;49.890;8.222;2023-04-25T07:41:45;1.10;;;0.77;;
2994;SDS011;35277;49.890;8.222;2023-04-25T07:44:19;2.07;;;1.33;;
2994;SDS011;35277;49.890;8.222;2023-04-25T07:46:47;1.00;;;0.50;;
2994;SDS011;35277;49.890;8.222;2023-04-25T07:49:15;1.97;;;1.13;;
2994;SDS011;35277;49.890;8.222;2023-04-25T07:51:43;1.00;;;0.60;;
2994;SDS011;35277;49.890;8.222;2023-04-25T07:54:16;1.50;;;0.93;;
2994;SDS011;35277;49.890;8.222;2023-04-25T07:56:49;1.00;;;0.47;;
2994;SDS011;35277;49.890;8.222;2023-04-25T07:59:22;1.00;;;0.40;;
2994;SDS011;35277;49.890;8.222;2023-04-25T08:01:52;1.10;;;0.60;;
2994;SDS011;35277;49.890;8.222;2023-04-25T08:04:21;3.07;;;0.80;;
2994;SDS011;35277;49.890;8.222;2023-04-25T08:06:57;1.20;;;0.60;;
2994;SDS011;35277;49.890;8.222;2023-04-25T08:09:30;1.57;;;0.70;;
2994;SDS011;35277;49.890;8.222;2023-04-25T08:12:02;0.90;;;0.30;;
2994;SDS011;35277;49.890;8.222;2023-04-25T08:14:32;1.00;;;0.43;;
2994;SDS011;35277;49.890;8.222;2023-04-25T08:17:04;1.20;;;0.97;;
2994;SDS011;35277;49.890;8.222;2023-04-25T08:19:37;1.00;;;0.60;;
2994;SDS011;35277;49.890;8.222;2023-04-25T08:22:07;1.83;;;0.60;;
2994;SDS011;35277;49.890;8.222;2023-04-25T08:24:47;1.10;;;0.63;;
2994;SDS011;35277;49.890;8.222;2023-04-25T08:27:17;5.00;;;1.87;;
2994;SDS011;35277;49.890;8.222;2023-04-25T08:29:47;1.00;;;0.40;;
2994;SDS011;35277;49.890;8.222;2023-04-25T08:32:15;1.10;;;0.60;;
2994;SDS011;35277;49.890;8.222;2023-04-25T08:34:56;1.20;;;0.50;;
2994;SDS011;35277;49.890;8.222;2023-04-25T08:37:25;0.97;;;0.40;;
2994;SDS011;35277;49.890;8.222;2023-04-25T08:39:59;1.00;;;0.40;;
2994;SDS011;35277;49.890;8.222;2023-04-25T08:42:43;1.00;;;0.57;;
2994;SDS011;35277;49.890;8.222;2023-04-25T08:45:12;1.00;;;0.40;;
2994;SDS011;35277;49.890;8.222;2023-04-25T08:47:42;1.00;;;0.67;;
2994;SDS011;35277;49.890;8.222;2023-04-25T08:50:13;1.10;;;0.97;;
2994;SDS011;35277;49.890;8.222;2023-04-25T08:52:43;1.00;;;0.50;;
2994;SDS011;35277;49.890;8.222;2023-04-25T08:55:13;15.67;;;1.80;;
2994;SDS011;35277;49.890;8.222;2023-04-25T08:57:42;1.10;;;0.70;;
2994;SDS011;35277;49.890;8.222;2023-04-25T09:00:12;3.50;;;0.90;;
2994;SDS011;35277;49.890;8.222;2023-04-25T09:02:42;1.00;;;0.47;;
2994;SDS011;35277;49.890;8.222;2023-04-25T09:05:12;1.00;;;0.40;;
2994;SDS011;35277;49.890;8.222;2023-04-25T09:07:42;1.00;;;0.50;;
2994;SDS011;35277;49.890;8.222;2023-04-25T09:10:10;1.10;;;0.60;;
2994;SDS011;35277;49.890;8.222;2023-04-25T09:12:39;1.00;;;0.40;;
2994;SDS011;35277;49.890;8.222;2023-04-25T09:15:10;1.93;;;0.87;;
2994;SDS011;35277;49.890;8.222;2023-04-25T09:17:46;1.50;;;0.70;;
2994;SDS011;35277;49.890;8.222;2023-04-25T09:20:26;0.90;;;0.30;;
2994;SDS011;35277;49.890;8.222;2023-04-25T09:23:03;1.10;;;0.50;;
2994;SDS011;35277;49.890;8.222;2023-04-25T09:25:36;0.90;;;0.40;;
2994;SDS011;35277;49.890;8.222;2023-04-25T09:28:08;1.10;;;0.67;;
2994;SDS011;35277;49.890;8.222;2023-04-25T09:30:37;1.40;;;0.77;;
2994;SDS011;35277;49.890;8.222;2023-04-25T09:33:26;1.50;;;1.10;;
2994;SDS011;35277;49.890;8.222;2023-04-25T09:36:01;1.20;;;0.70;;
2994;SDS011;35277;49.890;8.222;2023-04-25T09:38:57;12.90;;;1.27;;
2994;SDS011;35277;49.890;8.222;2023-04-25T09:41:28;1.83;;;0.70;;
2994;SDS011;35277;49.890;8.222;2023-04-25T09:44:01;1.10;;;0.80;;
2994;SDS011;35277;49.890;8.222;2023-04-25T09:46:33;0.93;;;0.40;;
2994;SDS011;35277;49.890;8.222;2023-04-25T09:49:06;1.00;;;0.40;;
2994;SDS011;35277;49.890;8.222;2023-04-25T09:51:56;5.60;;;1.93;;
2994;SDS011;35277;49.890;8.222;2023-04-25T09:54:28;1.00;;;0.40;;
2994;SDS011;35277;49.890;8.222;2023-04-25T09:57:09;0.97;;;0.40;;
2994;SDS011;35277;49.890;8.222;2023-04-25T09:59:42;1.80;;;1.40;;
2994;SDS011;35277;49.890;8.222;2023-04-25T10:02:11;29.70;;;20.07;;
2994;SDS011;35277;49.890;8.222;2023-04-25T10:04:40;13.03;;;11.83;;
2994;SDS011;35277;49.890;8.222;2023-04-25T10:07:16;19.73;;;17.97;;
2994;SDS011;35277;49.890;8.222;2023-04-25T10:09:47;13.90;;;12.40;;
2994;SDS011;35277;49.890;8.222;2023-04-25T10:12:17;15.73;;;9.10;;
2994;SDS011;35277;49.890;8.222;2023-04-25T10:14:46;12.43;;;9.13;;
2994;SDS011;35277;49.890;8.222;2023-04-25T10:17:14;7.43;;;5.13;;
2994;SDS011;35277;49.890;8.222;2023-04-25T10:19:42;5.70;;;5.30;;
2994;SDS011;35277;49.890;8.222;2023-04-25T10:22:11;7.20;;;4.20;;
2994;SDS011;35277;49.890;8.222;2023-04-25T10:24:43;9.63;;;8.47;;
2994;SDS011;35277;49.890;8.222;2023-04-25T10:27:13;8.53;;;5.93;;
2994;SDS011;35277;49.890;8.222;2023-04-25T10:29:41;8.30;;;7.50;;
2994;SDS011;35277;49.890;8.222;2023-04-25T10:32:11;10.03;;;8.40;;
2994;SDS011;35277;49.890;8.222;2023-04-25T10:34:39;7.30;;;6.63;;
2994;SDS011;35277;49.890;8.222;2023-04-25T10:37:09;2.57;;;2.33;;
2994;SDS011;35277;49.890;8.222;2023-04-25T10:39:38;12.47;;;4.57;;
2994;SDS011;35277;49.890;8.222;2023-04-25T10:42:07;7.50;;;3.07;;
2994;SDS011;35277;49.890;8.222;2023-04-25T10:44:36;2.90;;;2.17;;
2994;SDS011;35277;49.890;8.222;2023-04-25T10:47:06;4.27;;;3.87;;
2994;SDS011;35277;49.890;8.222;2023-04-25T10:49:37;4.07;;;2.70;;
2994;SDS011;35277;49.890;8.222;2023-04-25T10:52:15;3.20;;;2.33;;
2994;SDS011;35277;49.890;8.222;2023-04-25T10:54:48;3.50;;;3.20;;
2994;SDS011;35277;49.890;8.222;2023-04-25T10:57:31;9.20;;;3.00;;
2994;SDS011;35277;49.890;8.222;2023-04-25T11:00:10;11.17;;;3.87;;
2994;SDS011;35277;49.890;8.222;2023-04-25T11:02:41;4.90;;;3.67;;
2994;SDS011;35277;49.890;8.222;2023-04-25T11:05:16;1.93;;;1.77;;
2994;SDS011;35277;49.890;8.222;2023-04-25T11:07:49;3.57;;;3.27;;
2994;SDS011;35277;49.890;8.222;2023-04-25T11:10:32;6.13;;;2.93;;
2994;SDS011;35277;49.890;8.222;2023-04-25T11:13:02;1.77;;;1.33;;
2994;SDS011;35277;49.890;8.222;2023-04-25T11:15:30;1.87;;;1.50;;
2994;SDS011;35277;49.890;8.222;2023-04-25T11:17:58;2.27;;;2.07;;
2994;SDS011;35277;49.890;8.222;2023-04-25T11:20:28;2.50;;;2.30;;
2994;SDS011;35277;49.890;8.222;2023-04-25T11:22:57;3.13;;;2.03;;
2994;SDS011;35277;49.890;8.222;2023-04-25T11:25:25;2.93;;;2.73;;
2994;SDS011;35277;49.890;8.222;2023-04-25T11:27:54;3.13;;;2.87;;
2994;SDS011;35277;49.890;8.222;2023-04-25T11:30:23;1.80;;;1.70;;
2994;SDS011;35277;49.890;8.222;2023-04-25T11:32:52;5.00;;;3.23;;
2994;SDS011;35277;49.890;8.222;2023-04-25T11:35:21;2.77;;;2.43;;
2994;SDS011;35277;49.890;8.222;2023-04-25T11:37:52;2.13;;;1.93;;
2994;SDS011;35277;49.890;8.222;2023-04-25T11:40:20;2.03;;;1.93;;
2994;SDS011;35277;49.890;8.222;2023-04-25T11:42:48;1.20;;;1.10;;
2994;SDS011;35277;49.890;8.222;2023-04-25T11:45:17;2.30;;;1.90;;
2994;SDS011;35277;49.890;8.222;2023-04-25T11:47:45;4.10;;;3.10;;
2994;SDS011;35277;49.890;8.222;2023-04-25T11:50:13;2.03;;;1.83;;
2994;SDS011;35277;49.890;8.222;2023-04-25T11:52:42;1.97;;;1.77;;
2994;SDS011;35277;49.890;8.222;2023-04-25T11:55:14;2.13;;;1.47;;
2994;SDS011;35277;49.890;8.222;2023-04-25T11:57:43;1.00;;;0.50;;
2994;SDS011;35277;49.890;8.222;2023-04-25T12:00:12;1.20;;;0.80;;
2994;SDS011;35277;49.890;8.222;2023-04-25T12:02:45;1.80;;;0.90;;
2994;SDS011;35277;49.890;8.222;2023-04-25T12:05:15;19.67;;;1.83;;
2994;SDS011;35277;49.890;8.222;2023-04-25T12:07:46;1.63;;;1.17;;
2994;SDS011;35277;49.890;8.222;2023-04-25T12:10:16;1.63;;;1.03;;
2994;SDS011;35277;49.890;8.222;2023-04-25T12:12:45;2.53;;;1.13;;
2994;SDS011;35277;49.890;8.222;2023-04-25T12:15:14;2.17;;;0.97;;
2994;SDS011;35277;49.890;8.222;2023-04-25T12:17:45;1.10;;;0.80;;
2994;SDS011;35277;49.890;8.222;2023-04-25T12:20:15;2.33;;;1.67;;
2994;SDS011;35277;49.890;8.222;2023-04-25T12:22:44;1.00;;;0.50;;
2994;SDS011;35277;49.890;8.222;2023-04-25T12:25:20;2.03;;;1.20;;
2994;SDS011;35277;49.890;8.222;2023-04-25T12:28:09;1.63;;;1.17;;
2994;SDS011;35277;49.890;8.222;2023-04-25T12:30:53;1.30;;;1.10;;
2994;SDS011;35277;49.890;8.222;2023-04-25T12:33:22;2.43;;;1.40;;
2994;SDS011;35277;49.890;8.222;2023-04-25T12:35:50;2.10;;;0.80;;
2994;SDS011;35277;49.890;8.222;2023-04-25T12:38:24;1.33;;;1.23;;
2994;SDS011;35277;49.890;8.222;2023-04-25T12:40:54;1.10;;;0.60;;
2994;SDS011;35277;49.890;8.222;2023-04-25T12:43:22;2.30;;;2.10;;
2994;SDS011;35277;49.890;8.222;2023-04-25T12:45:50;2.00;;;1.83;;
2994;SDS011;35277;49.890;8.222;2023-04-25T12:48:19;3.13;;;1.93;;
2994;SDS011;35277;49.890;8.222;2023-04-25T12:50:48;10.10;;;1.63;;
2994;SDS011;35277;49.890;8.222;2023-04-25T12:53:16;1.30;;;1.00;;
2994;SDS011;35277;49.890;8.222;2023-04-25T12:55:45;1.10;;;0.87;;
2994;SDS011;35277;49.890;8.222;2023-04-25T12:58:14;1.30;;;1.03;;
2994;SDS011;35277;49.890;8.222;2023-04-25T13:00:42;1.67;;;0.80;;
2994;SDS011;35277;49.890;8.222;2023-04-25T13:03:11;1.67;;;1.50;;
2994;SDS011;35277;49.890;8.222;2023-04-25T13:05:39;2.10;;;1.70;;
2994;SDS011;35277;49.890;8.222;2023-04-25T13:08:07;5.43;;;2.43;;
2994;SDS011;35277;49.890;8.222;2023-04-25T13:10:35;1.10;;;0.60;;
2994;SDS011;35277;49.890;8.222;2023-04-25T13:13:04;1.10;;;0.67;;
2994;SDS011;35277;49.890;8.222;2023-04-25T13:15:33;1.27;;;0.97;;
2994;SDS011;35277;49.890;8.222;2023-04-25T13:18:01;0.90;;;0.40;;
2994;SDS011;35277;49.890;8.222;2023-04-25T13:20:30;1.20;;;0.87;;
2994;SDS011;35277;49.890;8.222;2023-04-25T13:22:57;1.47;;;1.10;;
2994;SDS011;35277;49.890;8.222;2023-04-25T13:25:27;2.50;;;1.03;;
2994;SDS011;35277;49.890;8.222;2023-04-25T13:27:55;3.00;;;2.20;;
2994;SDS011;35277;49.890;8.222;2023-04-25T13:30:23;1.00;;;0.60;;
2994;SDS011;35277;49.890;8.222;2023-04-25T13:32:53;2.10;;;1.20;;
2994;SDS011;35277;49.890;8.222;2023-04-25T13:35:22;1.10;;;0.60;;
2994;SDS011;35277;49.890;8.222;2023-04-25T13:37:50;2.53;;;1.13;;
2994;SDS011;35277;49.890;8.222;2023-04-25T13:40:18;1.10;;;0.73;;
2994;SDS011;35277;49.890;8.222;2023-04-25T13:42:48;1.40;;;0.73;;
2994;SDS011;35277;49.890;8.222;2023-04-25T13:45:17;3.87;;;2.37;;
2994;SDS011;35277;49.890;8.222;2023-04-25T13:47:45;1.47;;;1.30;;
2994;SDS011;35277;49.890;8.222;2023-04-25T13:50:14;1.73;;;1.33;;
2994;SDS011;35277;49.890;8.222;2023-04-25T13:52:42;1.30;;;0.97;;
2994;SDS011;35277;49.890;8.222;2023-04-25T13:55:11;5.33;;;0.93;;
2994;SDS011;35277;49.890;8.222;2023-04-25T13:57:38;1.20;;;0.60;;
2994;SDS011;35277;49.890;8.222;2023-04-25T14:00:07;1.10;;;0.50;;
2994;SDS011;35277;49.890;8.222;2023-04-25T14:02:36;1.93;;;1.30;;
2994;SDS011;35277;49.890;8.222;2023-04-25T14:05:04;0.90;;;0.40;;
2994;SDS011;35277;49.890;8.222;2023-04-25T14:07:34;1.00;;;0.40;;
2994;SDS011;35277;49.890;8.222;2023-04-25T14:10:02;1.00;;;0.40;;
2994;SDS011;35277;49.890;8.222;2023-04-25T14:12:31;1.10;;;0.70;;
2994;SDS011;35277;49.890;8.222;2023-04-25T14:14:59;0.97;;;0.40;;
2994;SDS011;35277;49.890;8.222;2023-04-25T14:17:27;1.03;;;0.57;;
2994;SDS011;35277;49.890;8.222;2023-04-25T14:19:54;1.87;;;0.70;;
2994;SDS011;35277;49.890;8.222;2023-04-25T14:22:22;0.93;;;0.40;;
2994;SDS011;35277;49.890;8.222;2023-04-25T14:24:52;1.30;;;0.70;;
2994;SDS011;35277;49.890;8.222;2023-04-25T14:27:19;1.30;;;0.77;;
2994;SDS011;35277;49.890;8.222;2023-04-25T14:29:47;1.40;;;0.63;;
2994;SDS011;35277;49.890;8.222;2023-04-25T14:32:15;1.00;;;0.73;;
2994;SDS011;35277;49.890;8.222;2023-04-25T14:34:43;1.00;;;0.60;;
2994;SDS011;35277;49.890;8.222;2023-04-25T14:37:11;1.00;;;0.50;;
2994;SDS011;35277;49.890;8.222;2023-04-25T14:39:39;1.40;;;1.27;;
2994;SDS011;35277;49.890;8.222;2023-04-25T14:42:08;1.20;;;0.90;;
2994;SDS011;35277;49.890;8.222;2023-04-25T14:44:37;4.13;;;1.73;;
2994;SDS011;35277;49.890;8.222;2023-04-25T14:47:05;1.30;;;0.67;;
2994;SDS011;35277;49.890;8.222;2023-04-25T14:49:33;1.40;;;0.73;;
2994;SDS011;35277;49.890;8.222;2023-04-25T14:52:01;0.90;;;0.40;;
2994;SDS011;35277;49.890;8.222;2023-04-25T14:54:29;2.80;;;2.60;;
2994;SDS011;35277;49.890;8.222;2023-04-25T14:56:57;1.00;;;0.50;;
2994;SDS011;35277;49.890;8.222;2023-04-25T14:59:26;1.87;;;0.73;;
2994;SDS011;35277;49.890;8.222;2023-04-25T15:01:54;1.87;;;1.10;;
2994;SDS011;35277;49.890;8.222;2023-04-25T15:04:25;1.03;;;0.60;;
2994;SDS011;35277;49.890;8.222;2023-04-25T15:06:53;1.70;;;1.53;;
2994;SDS011;35277;49.890;8.222;2023-04-25T15:09:21;1.37;;;0.70;;
2994;SDS011;35277;49.890;8.222;2023-04-25T15:11:50;1.00;;;0.60;;
2994;SDS011;35277;49.890;8.222;2023-04-25T15:14:18;1.00;;;0.50;;
2994;SDS011;35277;49.890;8.222;2023-04-25T15:16:47;1.63;;;1.03;;
2994;SDS011;35277;49.890;8.222;2023-04-25T15:19:14;1.47;;;0.77;;
2994;SDS011;35277;49.890;8.222;2023-04-25T15:21:42;1.00;;;0.53;;
2994;SDS011;35277;49.890;8.222;2023-04-25T15:24:10;1.10;;;0.60;;
2994;SDS011;35277;49.890;8.222;2023-04-25T15:26:38;1.00;;;0.47;;